sensor_id;sensor_type;location;lat;lon;timestamp;P1;durP1;ratioP1;P2;durP2;ratioP2
22916;SDS011;11624;53.250;7.456;2022-12-10T00:01:37;65.03;;;27.97;;
22916;SDS011;11624;53.250;7.456;2022-12-10T00:04:06;65.47;;;27.47;;
22916;SDS011;11624;53.250;7.456;2022-12-10T00:06:35;63.77;;;26.70;;
22916;SDS011;11624;53.250;7.456;2022-12-10T00:09:06;60.93;;;27.03;;
22916;SDS011;11624;53.250;7.456;2022-12-10T00:11:38;61.50;;;26.80;;
22916;SDS011;11624;53.250;7.456;2022-12-10T00:14:08;63.03;;;26.93;;
22916;SDS011;11624;53.250;7.456;2022-12-10T00:16:38;58.63;;;27.03;;
22916;SDS011;11624;53.250;7.456;2022-12-10T00:19:07;63.50;;;28.50;;
22916;SDS011;11624;53.250;7.456;2022-12-10T00:21:35;57.23;;;25.17;;
22916;SDS011;11624;53.250;7.456;2022-12-10T00:24:05;63.33;;;28.23;;
22916;SDS011;11624;53.250;7.456;2022-12-10T00:26:34;61.63;;;28.20;;
22916;SDS011;11624;53.250;7.456;2022-12-10T00:29:04;66.87;;;28.77;;
22916;SDS011;11624;53.250;7.456;2022-12-10T00:31:36;63.97;;;28.50;;
22916;SDS011;11624;53.250;7.456;2022-12-10T00:34:06;60.63;;;28.00;;
22916;SDS011;11624;53.250;7.456;2022-12-10T00:36:37;64.80;;;27.90;;
22916;SDS011;11624;53.250;7.456;2022-12-10T00:39:06;64.17;;;28.40;;
22916;SDS011;11624;53.250;7.456;2022-12-10T00:41:35;63.07;;;27.80;;
22916;SDS011;11624;53.250;7.456;2022-12-10T00:44:03;61.07;;;28.40;;
22916;SDS011;11624;53.250;7.456;2022-12-10T00:46:32;61.37;;;27.73;;
22916;SDS011;11624;53.250;7.456;2022-12-10T00:49:02;58.20;;;27.10;;
22916;SDS011;11624;53.250;7.456;2022-12-10T00:51:30;60.63;;;27.17;;
22916;SDS011;11624;53.250;7.456;2022-12-10T00:53:59;58.73;;;27.33;;
22916;SDS011;11624;53.250;7.456;2022-12-10T00:56:30;65.07;;;28.80;;
22916;SDS011;11624;53.250;7.456;2022-12-10T00:59:00;64.20;;;27.57;;
22916;SDS011;11624;53.250;7.456;2022-12-10T01:01:29;66.83;;;29.10;;
22916;SDS011;11624;53.250;7.456;2022-12-10T01:03:59;67.97;;;29.20;;
22916;SDS011;11624;53.250;7.456;2022-12-10T01:06:32;63.63;;;28.03;;
22916;SDS011;11624;53.250;7.456;2022-12-10T01:09:03;64.60;;;29.97;;
22916;SDS011;11624;53.250;7.456;2022-12-10T01:11:34;65.87;;;28.97;;
22916;SDS011;11624;53.250;7.456;2022-12-10T01:14:05;69.90;;;30.57;;
22916;SDS011;11624;53.250;7.456;2022-12-10T01:16:34;70.90;;;31.27;;
22916;SDS011;11624;53.250;7.456;2022-12-10T01:19:04;66.50;;;30.40;;
22916;SDS011;11624;53.250;7.456;2022-12-10T01:21:33;70.07;;;30.63;;
22916;SDS011;11624;53.250;7.456;2022-12-10T01:24:02;67.60;;;29.90;;
22916;SDS011;11624;53.250;7.456;2022-12-10T01:26:31;68.23;;;29.80;;
22916;SDS011;11624;53.250;7.456;2022-12-10T01:29:01;63.77;;;28.47;;
22916;SDS011;11624;53.250;7.456;2022-12-10T01:31:31;61.80;;;31.10;;
22916;SDS011;11624;53.250;7.456;2022-12-10T01:34:01;67.50;;;29.63;;
22916;SDS011;11624;53.250;7.456;2022-12-10T01:36:33;67.33;;;31.57;;
22916;SDS011;11624;53.250;7.456;2022-12-10T01:39:03;66.50;;;29.73;;
22916;SDS011;11624;53.250;7.456;2022-12-10T01:41:34;69.77;;;29.17;;
22916;SDS011;11624;53.250;7.456;2022-12-10T01:44:53;69.27;;;29.40;;
22916;SDS011;11624;53.250;7.456;2022-12-10T01:47:11;67.77;;;29.63;;
22916;SDS011;11624;53.250;7.456;2022-12-10T01:49:40;67.23;;;29.77;;
22916;SDS011;11624;53.250;7.456;2022-12-10T01:52:11;70.33;;;29.83;;
22916;SDS011;11624;53.250;7.456;2022-12-10T01:54:40;67.20;;;29.27;;
22916;SDS011;11624;53.250;7.456;2022-12-10T01:57:11;61.97;;;29.47;;
22916;SDS011;11624;53.250;7.456;2022-12-10T01:59:42;68.37;;;29.43;;
22916;SDS011;11624;53.250;7.456;2022-12-10T02:02:14;65.47;;;30.73;;
22916;SDS011;11624;53.250;7.456;2022-12-10T02:04:54;61.53;;;28.10;;
22916;SDS011;11624;53.250;7.456;2022-12-10T02:07:32;71.70;;;29.90;;
22916;SDS011;11624;53.250;7.456;2022-12-10T02:10:10;65.37;;;27.40;;
22916;SDS011;11624;53.250;7.456;2022-12-10T02:12:46;73.03;;;32.00;;
22916;SDS011;11624;53.250;7.456;2022-12-10T02:15:21;70.00;;;30.30;;
22916;SDS011;11624;53.250;7.456;2022-12-10T02:17:53;74.03;;;31.63;;
22916;SDS011;11624;53.250;7.456;2022-12-10T02:20:28;70.30;;;30.77;;
22916;SDS011;11624;53.250;7.456;2022-12-10T02:23:06;69.63;;;29.60;;
22916;SDS011;11624;53.250;7.456;2022-12-10T02:25:39;63.97;;;29.03;;
22916;SDS011;11624;53.250;7.456;2022-12-10T02:28:17;69.87;;;30.37;;
22916;SDS011;11624;53.250;7.456;2022-12-10T02:30:51;72.10;;;30.67;;
22916;SDS011;11624;53.250;7.456;2022-12-10T02:33:21;66.87;;;30.07;;
22916;SDS011;11624;53.250;7.456;2022-12-10T02:35:51;69.50;;;31.93;;
22916;SDS011;11624;53.250;7.456;2022-12-10T02:38:23;69.07;;;30.77;;
22916;SDS011;11624;53.250;7.456;2022-12-10T02:40:58;72.93;;;31.30;;
22916;SDS011;11624;53.250;7.456;2022-12-10T02:43:30;69.87;;;31.13;;
22916;SDS011;11624;53.250;7.456;2022-12-10T02:46:03;73.40;;;31.17;;
22916;SDS011;11624;53.250;7.456;2022-12-10T02:48:34;69.17;;;31.63;;
22916;SDS011;11624;53.250;7.456;2022-12-10T02:51:04;70.37;;;30.90;;
22916;SDS011;11624;53.250;7.456;2022-12-10T02:53:33;73.47;;;30.60;;
22916;SDS011;11624;53.250;7.456;2022-12-10T02:56:10;69.60;;;32.07;;
22916;SDS011;11624;53.250;7.456;2022-12-10T02:58:49;68.77;;;31.27;;
22916;SDS011;11624;53.250;7.456;2022-12-10T03:01:31;70.60;;;31.30;;
22916;SDS011;11624;53.250;7.456;2022-12-10T03:04:11;69.17;;;31.13;;
22916;SDS011;11624;53.250;7.456;2022-12-10T03:06:42;74.33;;;32.07;;
22916;SDS011;11624;53.250;7.456;2022-12-10T03:09:16;73.67;;;33.27;;
22916;SDS011;11624;53.250;7.456;2022-12-10T03:11:47;69.63;;;32.23;;
22916;SDS011;11624;53.250;7.456;2022-12-10T03:14:24;74.00;;;32.80;;
22916;SDS011;11624;53.250;7.456;2022-12-10T03:16:57;69.70;;;30.57;;
22916;SDS011;11624;53.250;7.456;2022-12-10T03:19:29;70.70;;;32.77;;
22916;SDS011;11624;53.250;7.456;2022-12-10T03:22:00;69.07;;;32.17;;
22916;SDS011;11624;53.250;7.456;2022-12-10T03:24:30;71.33;;;32.57;;
22916;SDS011;11624;53.250;7.456;2022-12-10T03:27:00;73.83;;;33.33;;
22916;SDS011;11624;53.250;7.456;2022-12-10T03:29:31;70.40;;;33.03;;
22916;SDS011;11624;53.250;7.456;2022-12-10T03:32:04;73.50;;;32.87;;
22916;SDS011;11624;53.250;7.456;2022-12-10T03:34:33;69.10;;;32.37;;
22916;SDS011;11624;53.250;7.456;2022-12-10T03:37:03;72.70;;;32.50;;
22916;SDS011;11624;53.250;7.456;2022-12-10T03:39:32;75.00;;;32.30;;
22916;SDS011;11624;53.250;7.456;2022-12-10T03:42:01;74.23;;;32.70;;
22916;SDS011;11624;53.250;7.456;2022-12-10T03:44:29;79.30;;;32.97;;
22916;SDS011;11624;53.250;7.456;2022-12-10T03:46:59;73.07;;;33.20;;
22916;SDS011;11624;53.250;7.456;2022-12-10T03:49:29;70.97;;;32.23;;
22916;SDS011;11624;53.250;7.456;2022-12-10T03:51:58;71.27;;;32.23;;
22916;SDS011;11624;53.250;7.456;2022-12-10T03:54:26;69.50;;;33.07;;
22916;SDS011;11624;53.250;7.456;2022-12-10T03:56:54;77.97;;;32.83;;
22916;SDS011;11624;53.250;7.456;2022-12-10T03:59:23;75.33;;;33.50;;
22916;SDS011;11624;53.250;7.456;2022-12-10T04:01:51;74.43;;;32.73;;
22916;SDS011;11624;53.250;7.456;2022-12-10T04:04:21;70.27;;;33.03;;
22916;SDS011;11624;53.250;7.456;2022-12-10T04:09:35;76.57;;;33.63;;
22916;SDS011;11624;53.250;7.456;2022-12-10T04:12:04;77.43;;;32.83;;
22916;SDS011;11624;53.250;7.456;2022-12-10T04:14:32;72.80;;;32.60;;
22916;SDS011;11624;53.250;7.456;2022-12-10T04:17:18;78.40;;;32.83;;
22916;SDS011;11624;53.250;7.456;2022-12-10T04:19:46;81.67;;;34.37;;
22916;SDS011;11624;53.250;7.456;2022-12-10T04:22:17;75.37;;;33.70;;
22916;SDS011;11624;53.250;7.456;2022-12-10T04:25:03;80.77;;;34.83;;
22916;SDS011;11624;53.250;7.456;2022-12-10T04:27:49;77.27;;;33.33;;
22916;SDS011;11624;53.250;7.456;2022-12-10T04:30:17;83.17;;;36.70;;
22916;SDS011;11624;53.250;7.456;2022-12-10T04:32:46;78.50;;;35.33;;
22916;SDS011;11624;53.250;7.456;2022-12-10T04:35:14;77.97;;;34.20;;
22916;SDS011;11624;53.250;7.456;2022-12-10T04:37:44;82.53;;;34.97;;
22916;SDS011;11624;53.250;7.456;2022-12-10T04:40:12;84.17;;;35.27;;
22916;SDS011;11624;53.250;7.456;2022-12-10T04:42:41;80.90;;;34.73;;
22916;SDS011;11624;53.250;7.456;2022-12-10T04:45:09;84.20;;;35.63;;
22916;SDS011;11624;53.250;7.456;2022-12-10T04:47:37;91.07;;;37.67;;
22916;SDS011;11624;53.250;7.456;2022-12-10T04:50:06;78.77;;;34.27;;
22916;SDS011;11624;53.250;7.456;2022-12-10T04:52:35;91.67;;;36.13;;
22916;SDS011;11624;53.250;7.456;2022-12-10T04:55:05;93.47;;;37.23;;
22916;SDS011;11624;53.250;7.456;2022-12-10T04:57:34;84.80;;;36.73;;
22916;SDS011;11624;53.250;7.456;2022-12-10T05:00:03;88.73;;;36.63;;
22916;SDS011;11624;53.250;7.456;2022-12-10T05:02:32;89.00;;;37.03;;
22916;SDS011;11624;53.250;7.456;2022-12-10T05:05:00;87.53;;;36.57;;
22916;SDS011;11624;53.250;7.456;2022-12-10T05:07:29;90.03;;;36.40;;
22916;SDS011;11624;53.250;7.456;2022-12-10T05:09:57;91.83;;;38.27;;
22916;SDS011;11624;53.250;7.456;2022-12-10T05:12:27;88.10;;;37.13;;
22916;SDS011;11624;53.250;7.456;2022-12-10T05:14:55;98.40;;;39.90;;
22916;SDS011;11624;53.250;7.456;2022-12-10T05:17:23;95.17;;;38.53;;
22916;SDS011;11624;53.250;7.456;2022-12-10T05:19:52;86.50;;;37.67;;
22916;SDS011;11624;53.250;7.456;2022-12-10T05:22:20;90.70;;;36.83;;
22916;SDS011;11624;53.250;7.456;2022-12-10T05:25:06;82.80;;;35.97;;
22916;SDS011;11624;53.250;7.456;2022-12-10T05:27:36;96.33;;;37.63;;
22916;SDS011;11624;53.250;7.456;2022-12-10T05:30:05;89.57;;;36.60;;
22916;SDS011;11624;53.250;7.456;2022-12-10T05:32:36;94.93;;;37.67;;
22916;SDS011;11624;53.250;7.456;2022-12-10T05:35:05;89.00;;;37.10;;
22916;SDS011;11624;53.250;7.456;2022-12-10T05:37:33;87.57;;;37.83;;
22916;SDS011;11624;53.250;7.456;2022-12-10T05:40:02;88.57;;;37.30;;
22916;SDS011;11624;53.250;7.456;2022-12-10T05:45:01;89.43;;;36.63;;
22916;SDS011;11624;53.250;7.456;2022-12-10T05:47:29;94.77;;;37.00;;
22916;SDS011;11624;53.250;7.456;2022-12-10T05:49:58;94.13;;;38.30;;
22916;SDS011;11624;53.250;7.456;2022-12-10T05:52:26;88.13;;;38.27;;
22916;SDS011;11624;53.250;7.456;2022-12-10T05:54:55;87.23;;;35.63;;
22916;SDS011;11624;53.250;7.456;2022-12-10T05:57:23;94.17;;;38.67;;
22916;SDS011;11624;53.250;7.456;2022-12-10T05:59:51;88.07;;;35.70;;
22916;SDS011;11624;53.250;7.456;2022-12-10T06:02:21;94.70;;;38.13;;
22916;SDS011;11624;53.250;7.456;2022-12-10T06:04:49;86.57;;;37.90;;
22916;SDS011;11624;53.250;7.456;2022-12-10T06:07:18;84.83;;;36.07;;
22916;SDS011;11624;53.250;7.456;2022-12-10T06:09:46;91.77;;;36.50;;
22916;SDS011;11624;53.250;7.456;2022-12-10T06:12:14;95.13;;;37.03;;
22916;SDS011;11624;53.250;7.456;2022-12-10T06:14:43;85.53;;;35.30;;
22916;SDS011;11624;53.250;7.456;2022-12-10T06:17:11;92.67;;;39.00;;
22916;SDS011;11624;53.250;7.456;2022-12-10T06:19:41;81.10;;;33.67;;
22916;SDS011;11624;53.250;7.456;2022-12-10T06:22:10;85.87;;;37.80;;
22916;SDS011;11624;53.250;7.456;2022-12-10T06:24:39;85.90;;;36.43;;
22916;SDS011;11624;53.250;7.456;2022-12-10T06:27:07;89.83;;;36.13;;
22916;SDS011;11624;53.250;7.456;2022-12-10T06:29:35;82.63;;;36.07;;
22916;SDS011;11624;53.250;7.456;2022-12-10T06:32:04;84.00;;;36.83;;
22916;SDS011;11624;53.250;7.456;2022-12-10T06:34:32;83.23;;;36.37;;
22916;SDS011;11624;53.250;7.456;2022-12-10T06:37:09;81.83;;;33.97;;
22916;SDS011;11624;53.250;7.456;2022-12-10T06:39:37;81.57;;;35.40;;
22916;SDS011;11624;53.250;7.456;2022-12-10T06:42:07;83.97;;;35.77;;
22916;SDS011;11624;53.250;7.456;2022-12-10T06:44:36;87.83;;;36.30;;
22916;SDS011;11624;53.250;7.456;2022-12-10T06:47:04;92.50;;;37.87;;
22916;SDS011;11624;53.250;7.456;2022-12-10T06:49:33;76.73;;;35.80;;
22916;SDS011;11624;53.250;7.456;2022-12-10T06:52:01;87.30;;;37.50;;
22916;SDS011;11624;53.250;7.456;2022-12-10T06:54:31;88.53;;;37.17;;
22916;SDS011;11624;53.250;7.456;2022-12-10T06:57:00;81.70;;;36.10;;
22916;SDS011;11624;53.250;7.456;2022-12-10T06:59:28;80.07;;;35.40;;
22916;SDS011;11624;53.250;7.456;2022-12-10T07:01:56;85.10;;;36.70;;
22916;SDS011;11624;53.250;7.456;2022-12-10T07:04:25;81.27;;;36.50;;
22916;SDS011;11624;53.250;7.456;2022-12-10T07:06:53;79.53;;;34.97;;
22916;SDS011;11624;53.250;7.456;2022-12-10T07:09:22;82.97;;;36.93;;
22916;SDS011;11624;53.250;7.456;2022-12-10T07:11:51;78.53;;;32.57;;
22916;SDS011;11624;53.250;7.456;2022-12-10T07:14:20;77.07;;;34.57;;
22916;SDS011;11624;53.250;7.456;2022-12-10T07:16:48;77.33;;;34.20;;
22916;SDS011;11624;53.250;7.456;2022-12-10T07:19:17;80.97;;;33.93;;
22916;SDS011;11624;53.250;7.456;2022-12-10T07:21:45;79.57;;;34.97;;
22916;SDS011;11624;53.250;7.456;2022-12-10T07:24:14;76.83;;;34.60;;
22916;SDS011;11624;53.250;7.456;2022-12-10T07:26:44;81.87;;;36.30;;
22916;SDS011;11624;53.250;7.456;2022-12-10T07:29:15;86.97;;;36.73;;
22916;SDS011;11624;53.250;7.456;2022-12-10T07:31:45;83.60;;;36.40;;
22916;SDS011;11624;53.250;7.456;2022-12-10T07:34:15;79.63;;;34.30;;
22916;SDS011;11624;53.250;7.456;2022-12-10T07:36:43;79.33;;;35.00;;
22916;SDS011;11624;53.250;7.456;2022-12-10T07:39:12;78.80;;;33.80;;
22916;SDS011;11624;53.250;7.456;2022-12-10T07:41:44;79.30;;;33.67;;
22916;SDS011;11624;53.250;7.456;2022-12-10T07:44:12;70.27;;;33.07;;
22916;SDS011;11624;53.250;7.456;2022-12-10T07:46:43;79.63;;;34.73;;
22916;SDS011;11624;53.250;7.456;2022-12-10T07:49:11;79.23;;;35.67;;
22916;SDS011;11624;53.250;7.456;2022-12-10T07:51:43;77.60;;;34.33;;
22916;SDS011;11624;53.250;7.456;2022-12-10T07:54:12;77.40;;;34.23;;
22916;SDS011;11624;53.250;7.456;2022-12-10T07:56:40;74.30;;;33.47;;
22916;SDS011;11624;53.250;7.456;2022-12-10T07:59:08;72.33;;;33.73;;
22916;SDS011;11624;53.250;7.456;2022-12-10T08:01:39;74.60;;;34.17;;
22916;SDS011;11624;53.250;7.456;2022-12-10T08:04:08;72.93;;;33.63;;
22916;SDS011;11624;53.250;7.456;2022-12-10T08:06:36;79.37;;;33.63;;
22916;SDS011;11624;53.250;7.456;2022-12-10T08:09:04;72.77;;;33.80;;
22916;SDS011;11624;53.250;7.456;2022-12-10T08:11:33;71.93;;;33.73;;
22916;SDS011;11624;53.250;7.456;2022-12-10T08:14:01;75.27;;;34.20;;
22916;SDS011;11624;53.250;7.456;2022-12-10T08:16:29;70.13;;;32.20;;
22916;SDS011;11624;53.250;7.456;2022-12-10T08:19:00;71.37;;;32.70;;
22916;SDS011;11624;53.250;7.456;2022-12-10T08:21:30;75.70;;;34.43;;
22916;SDS011;11624;53.250;7.456;2022-12-10T08:24:00;70.23;;;32.53;;
22916;SDS011;11624;53.250;7.456;2022-12-10T08:26:29;71.13;;;32.20;;
22916;SDS011;11624;53.250;7.456;2022-12-10T08:28:59;69.73;;;31.67;;
22916;SDS011;11624;53.250;7.456;2022-12-10T08:31:28;72.87;;;34.50;;
22916;SDS011;11624;53.250;7.456;2022-12-10T08:34:04;73.80;;;33.83;;
22916;SDS011;11624;53.250;7.456;2022-12-10T08:36:38;75.50;;;32.67;;
22916;SDS011;11624;53.250;7.456;2022-12-10T08:39:06;72.63;;;31.67;;
22916;SDS011;11624;53.250;7.456;2022-12-10T08:41:36;71.77;;;33.43;;
22916;SDS011;11624;53.250;7.456;2022-12-10T08:44:05;69.17;;;30.90;;
22916;SDS011;11624;53.250;7.456;2022-12-10T08:46:33;70.40;;;32.23;;
22916;SDS011;11624;53.250;7.456;2022-12-10T08:49:02;70.80;;;32.43;;
22916;SDS011;11624;53.250;7.456;2022-12-10T08:51:31;74.97;;;33.90;;
22916;SDS011;11624;53.250;7.456;2022-12-10T08:54:00;82.07;;;36.20;;
22916;SDS011;11624;53.250;7.456;2022-12-10T08:56:29;78.00;;;35.80;;
22916;SDS011;11624;53.250;7.456;2022-12-10T08:58:58;76.40;;;38.30;;
22916;SDS011;11624;53.250;7.456;2022-12-10T09:01:26;75.27;;;35.97;;
22916;SDS011;11624;53.250;7.456;2022-12-10T09:03:54;75.47;;;38.50;;
22916;SDS011;11624;53.250;7.456;2022-12-10T09:06:23;79.73;;;44.17;;
22916;SDS011;11624;53.250;7.456;2022-12-10T09:08:53;75.77;;;38.60;;
22916;SDS011;11624;53.250;7.456;2022-12-10T09:11:23;83.17;;;41.47;;
22916;SDS011;11624;53.250;7.456;2022-12-10T09:13:53;70.53;;;34.37;;
22916;SDS011;11624;53.250;7.456;2022-12-10T09:16:26;76.80;;;38.63;;
22916;SDS011;11624;53.250;7.456;2022-12-10T09:18:56;73.40;;;34.03;;
22916;SDS011;11624;53.250;7.456;2022-12-10T09:21:24;67.90;;;31.53;;
22916;SDS011;11624;53.250;7.456;2022-12-10T09:23:54;70.70;;;34.13;;
22916;SDS011;11624;53.250;7.456;2022-12-10T09:26:22;72.77;;;33.77;;
22916;SDS011;11624;53.250;7.456;2022-12-10T09:28:51;74.43;;;33.70;;
22916;SDS011;11624;53.250;7.456;2022-12-10T09:31:21;76.37;;;36.27;;
22916;SDS011;11624;53.250;7.456;2022-12-10T09:33:50;72.53;;;32.63;;
22916;SDS011;11624;53.250;7.456;2022-12-10T09:36:20;71.77;;;35.17;;
22916;SDS011;11624;53.250;7.456;2022-12-10T09:38:55;67.17;;;33.83;;
22916;SDS011;11624;53.250;7.456;2022-12-10T09:41:34;67.33;;;31.83;;
22916;SDS011;11624;53.250;7.456;2022-12-10T09:44:11;71.33;;;32.87;;
22916;SDS011;11624;53.250;7.456;2022-12-10T09:46:50;71.37;;;34.27;;
22916;SDS011;11624;53.250;7.456;2022-12-10T09:49:23;64.57;;;31.37;;
22916;SDS011;11624;53.250;7.456;2022-12-10T09:51:58;68.93;;;32.93;;
22916;SDS011;11624;53.250;7.456;2022-12-10T09:54:31;69.03;;;32.27;;
22916;SDS011;11624;53.250;7.456;2022-12-10T09:57:01;67.63;;;34.43;;
22916;SDS011;11624;53.250;7.456;2022-12-10T09:59:35;65.07;;;32.37;;
22916;SDS011;11624;53.250;7.456;2022-12-10T10:02:12;64.67;;;32.27;;
22916;SDS011;11624;53.250;7.456;2022-12-10T10:04:48;61.03;;;31.80;;
22916;SDS011;11624;53.250;7.456;2022-12-10T10:07:19;66.93;;;32.83;;
22916;SDS011;11624;53.250;7.456;2022-12-10T10:09:50;59.03;;;31.43;;
22916;SDS011;11624;53.250;7.456;2022-12-10T10:12:22;61.60;;;32.07;;
22916;SDS011;11624;53.250;7.456;2022-12-10T10:14:51;59.73;;;30.83;;
22916;SDS011;11624;53.250;7.456;2022-12-10T10:17:20;60.60;;;33.23;;
22916;SDS011;11624;53.250;7.456;2022-12-10T10:19:58;59.87;;;32.03;;
22916;SDS011;11624;53.250;7.456;2022-12-10T10:22:27;60.50;;;32.60;;
22916;SDS011;11624;53.250;7.456;2022-12-10T10:24:58;60.93;;;32.60;;
22916;SDS011;11624;53.250;7.456;2022-12-10T10:27:29;59.43;;;31.70;;
22916;SDS011;11624;53.250;7.456;2022-12-10T10:30:00;64.30;;;33.10;;
22916;SDS011;11624;53.250;7.456;2022-12-10T10:32:44;61.07;;;32.77;;
22916;SDS011;11624;53.250;7.456;2022-12-10T10:35:19;61.43;;;31.77;;
22916;SDS011;11624;53.250;7.456;2022-12-10T10:37:55;63.40;;;30.97;;
22916;SDS011;11624;53.250;7.456;2022-12-10T10:40:29;61.40;;;32.33;;
22916;SDS011;11624;53.250;7.456;2022-12-10T10:43:00;60.43;;;32.07;;
22916;SDS011;11624;53.250;7.456;2022-12-10T10:45:37;61.13;;;31.97;;
22916;SDS011;11624;53.250;7.456;2022-12-10T10:48:11;63.27;;;32.70;;
22916;SDS011;11624;53.250;7.456;2022-12-10T10:50:42;61.27;;;31.80;;
22916;SDS011;11624;53.250;7.456;2022-12-10T10:56:12;71.03;;;34.20;;
22916;SDS011;11624;53.250;7.456;2022-12-10T10:58:46;78.00;;;41.20;;
22916;SDS011;11624;53.250;7.456;2022-12-10T11:01:18;68.23;;;34.57;;
22916;SDS011;11624;53.250;7.456;2022-12-10T11:03:48;61.80;;;32.53;;
22916;SDS011;11624;53.250;7.456;2022-12-10T11:06:21;64.03;;;32.77;;
22916;SDS011;11624;53.250;7.456;2022-12-10T11:08:50;62.10;;;31.23;;
22916;SDS011;11624;53.250;7.456;2022-12-10T11:11:25;65.43;;;33.10;;
22916;SDS011;11624;53.250;7.456;2022-12-10T11:14:12;62.50;;;31.40;;
22916;SDS011;11624;53.250;7.456;2022-12-10T11:16:42;58.70;;;30.63;;
22916;SDS011;11624;53.250;7.456;2022-12-10T11:19:16;61.67;;;32.60;;
22916;SDS011;11624;53.250;7.456;2022-12-10T11:21:48;58.90;;;31.23;;
22916;SDS011;11624;53.250;7.456;2022-12-10T11:24:19;60.87;;;31.20;;
22916;SDS011;11624;53.250;7.456;2022-12-10T11:26:55;62.13;;;31.93;;
22916;SDS011;11624;53.250;7.456;2022-12-10T11:29:37;69.43;;;35.53;;
22916;SDS011;11624;53.250;7.456;2022-12-10T11:32:24;60.20;;;32.07;;
22916;SDS011;11624;53.250;7.456;2022-12-10T11:35:02;60.30;;;32.50;;
22916;SDS011;11624;53.250;7.456;2022-12-10T11:37:38;59.73;;;32.17;;
22916;SDS011;11624;53.250;7.456;2022-12-10T11:40:14;56.40;;;31.87;;
22916;SDS011;11624;53.250;7.456;2022-12-10T11:42:58;54.63;;;30.70;;
22916;SDS011;11624;53.250;7.456;2022-12-10T11:45:43;58.53;;;30.57;;
22916;SDS011;11624;53.250;7.456;2022-12-10T11:48:26;58.40;;;30.97;;
22916;SDS011;11624;53.250;7.456;2022-12-10T11:51:08;60.43;;;31.20;;
22916;SDS011;11624;53.250;7.456;2022-12-10T11:53:50;58.40;;;30.80;;
22916;SDS011;11624;53.250;7.456;2022-12-10T11:56:30;60.40;;;33.13;;
22916;SDS011;11624;53.250;7.456;2022-12-10T11:59:15;57.50;;;31.00;;
22916;SDS011;11624;53.250;7.456;2022-12-10T12:02:20;55.90;;;30.00;;
22916;SDS011;11624;53.250;7.456;2022-12-10T12:05:07;57.10;;;30.20;;
22916;SDS011;11624;53.250;7.456;2022-12-10T12:07:48;56.73;;;31.70;;
22916;SDS011;11624;53.250;7.456;2022-12-10T12:10:30;65.43;;;33.33;;
22916;SDS011;11624;53.250;7.456;2022-12-10T12:13:20;58.40;;;31.03;;
22916;SDS011;11624;53.250;7.456;2022-12-10T12:15:55;60.87;;;31.17;;
22916;SDS011;11624;53.250;7.456;2022-12-10T12:18:28;56.83;;;31.53;;
22916;SDS011;11624;53.250;7.456;2022-12-10T12:21:07;58.93;;;31.53;;
22916;SDS011;11624;53.250;7.456;2022-12-10T12:23:41;59.73;;;30.57;;
22916;SDS011;11624;53.250;7.456;2022-12-10T12:26:18;66.37;;;33.33;;
22916;SDS011;11624;53.250;7.456;2022-12-10T12:28:52;70.87;;;33.70;;
22916;SDS011;11624;53.250;7.456;2022-12-10T12:31:25;116.97;;;53.63;;
22916;SDS011;11624;53.250;7.456;2022-12-10T12:33:59;79.67;;;39.20;;
22916;SDS011;11624;53.250;7.456;2022-12-10T12:36:33;126.80;;;53.10;;
22916;SDS011;11624;53.250;7.456;2022-12-10T12:39:04;133.97;;;58.20;;
22916;SDS011;11624;53.250;7.456;2022-12-10T12:41:40;77.27;;;41.57;;
22916;SDS011;11624;53.250;7.456;2022-12-10T12:44:16;62.03;;;32.77;;
22916;SDS011;11624;53.250;7.456;2022-12-10T12:46:50;61.20;;;32.67;;
22916;SDS011;11624;53.250;7.456;2022-12-10T12:49:20;57.27;;;30.73;;
22916;SDS011;11624;53.250;7.456;2022-12-10T12:51:53;58.77;;;31.37;;
22916;SDS011;11624;53.250;7.456;2022-12-10T12:54:24;57.43;;;31.20;;
22916;SDS011;11624;53.250;7.456;2022-12-10T12:56:55;60.83;;;32.23;;
22916;SDS011;11624;53.250;7.456;2022-12-10T12:59:40;55.87;;;30.00;;
22916;SDS011;11624;53.250;7.456;2022-12-10T13:02:31;58.63;;;31.40;;
22916;SDS011;11624;53.250;7.456;2022-12-10T13:05:13;61.43;;;33.47;;
22916;SDS011;11624;53.250;7.456;2022-12-10T13:07:42;59.43;;;31.77;;
22916;SDS011;11624;53.250;7.456;2022-12-10T13:10:23;59.97;;;30.33;;
22916;SDS011;11624;53.250;7.456;2022-12-10T13:13:05;60.03;;;31.90;;
22916;SDS011;11624;53.250;7.456;2022-12-10T13:15:43;60.53;;;31.20;;
22916;SDS011;11624;53.250;7.456;2022-12-10T13:18:20;64.70;;;34.00;;
22916;SDS011;11624;53.250;7.456;2022-12-10T13:24:08;61.93;;;33.97;;
22916;SDS011;11624;53.250;7.456;2022-12-10T13:26:40;64.87;;;37.30;;
22916;SDS011;11624;53.250;7.456;2022-12-10T13:29:25;56.27;;;30.77;;
22916;SDS011;11624;53.250;7.456;2022-12-10T13:31:55;61.43;;;32.83;;
22916;SDS011;11624;53.250;7.456;2022-12-10T13:34:34;59.50;;;31.20;;
22916;SDS011;11624;53.250;7.456;2022-12-10T13:37:05;62.37;;;32.47;;
22916;SDS011;11624;53.250;7.456;2022-12-10T13:39:47;59.23;;;31.57;;
22916;SDS011;11624;53.250;7.456;2022-12-10T13:42:29;60.60;;;33.03;;
22916;SDS011;11624;53.250;7.456;2022-12-10T13:45:27;59.90;;;32.53;;
22916;SDS011;11624;53.250;7.456;2022-12-10T13:50:57;56.97;;;30.57;;
22916;SDS011;11624;53.250;7.456;2022-12-10T13:53:39;62.37;;;33.07;;
22916;SDS011;11624;53.250;7.456;2022-12-10T13:56:20;61.83;;;32.80;;
22916;SDS011;11624;53.250;7.456;2022-12-10T13:58:58;63.97;;;32.90;;
22916;SDS011;11624;53.250;7.456;2022-12-10T14:01:40;65.13;;;33.13;;
22916;SDS011;11624;53.250;7.456;2022-12-10T14:04:29;68.73;;;35.43;;
22916;SDS011;11624;53.250;7.456;2022-12-10T14:07:17;63.17;;;34.30;;
22916;SDS011;11624;53.250;7.456;2022-12-10T14:09:48;61.97;;;32.53;;
22916;SDS011;11624;53.250;7.456;2022-12-10T14:12:19;64.07;;;34.23;;
22916;SDS011;11624;53.250;7.456;2022-12-10T14:14:54;62.70;;;33.13;;
22916;SDS011;11624;53.250;7.456;2022-12-10T14:17:30;64.03;;;33.70;;
22916;SDS011;11624;53.250;7.456;2022-12-10T14:20:00;64.70;;;34.10;;
22916;SDS011;11624;53.250;7.456;2022-12-10T14:22:34;64.87;;;34.00;;
22916;SDS011;11624;53.250;7.456;2022-12-10T14:25:09;62.63;;;34.43;;
22916;SDS011;11624;53.250;7.456;2022-12-10T14:27:40;63.70;;;34.13;;
22916;SDS011;11624;53.250;7.456;2022-12-10T14:30:15;64.17;;;34.00;;
22916;SDS011;11624;53.250;7.456;2022-12-10T14:32:44;60.30;;;33.07;;
22916;SDS011;11624;53.250;7.456;2022-12-10T14:35:14;65.80;;;35.40;;
22916;SDS011;11624;53.250;7.456;2022-12-10T14:37:52;65.30;;;34.73;;
22916;SDS011;11624;53.250;7.456;2022-12-10T14:40:24;63.27;;;33.03;;
22916;SDS011;11624;53.250;7.456;2022-12-10T14:42:55;62.63;;;33.20;;
22916;SDS011;11624;53.250;7.456;2022-12-10T14:45:33;62.10;;;33.97;;
22916;SDS011;11624;53.250;7.456;2022-12-10T14:48:09;69.23;;;35.27;;
22916;SDS011;11624;53.250;7.456;2022-12-10T14:50:39;65.53;;;34.83;;
22916;SDS011;11624;53.250;7.456;2022-12-10T14:53:11;68.47;;;35.87;;
22916;SDS011;11624;53.250;7.456;2022-12-10T14:55:42;71.03;;;36.07;;
22916;SDS011;11624;53.250;7.456;2022-12-10T14:58:13;63.33;;;35.47;;
22916;SDS011;11624;53.250;7.456;2022-12-10T15:00:45;69.43;;;35.70;;
22916;SDS011;11624;53.250;7.456;2022-12-10T15:03:18;69.17;;;35.47;;
22916;SDS011;11624;53.250;7.456;2022-12-10T15:05:54;68.50;;;34.10;;